sensor_id;sensor_type;location;lat;lon;timestamp;temperature;humidity
23540;DHT22;11947;50.810;4.394;2023-07-02T00:00:08;17.00;99.90
23540;DHT22;11947;50.810;4.394;2023-07-02T00:02:35;17.00;99.90
23540;DHT22;11947;50.810;4.394;2023-07-02T00:05:01;16.90;99.90
23540;DHT22;11947;50.810;4.394;2023-07-02T00:07:26;16.80;99.90
23540;DHT22;11947;50.810;4.394;2023-07-02T00:09:52;16.80;99.90
23540;DHT22;11947;50.810;4.394;2023-07-02T00:12:18;16.80;99.90
23540;DHT22;11947;50.810;4.394;2023-07-02T00:14:44;16.80;99.90
23540;DHT22;11947;50.810;4.394;2023-07-02T00:17:10;16.80;99.90
23540;DHT22;11947;50.810;4.394;2023-07-02T00:19:38;16.80;99.90
23540;DHT22;11947;50.810;4.394;2023-07-02T00:22:05;16.80;99.90
23540;DHT22;11947;50.810;4.394;2023-07-02T00:24:30;16.80;99.90
23540;DHT22;11947;50.810;4.394;2023-07-02T00:26:56;16.80;99.90
23540;DHT22;11947;50.810;4.394;2023-07-02T00:29:22;16.80;99.90
23540;DHT22;11947;50.810;4.394;2023-07-02T00:31:47;16.90;99.90
23540;DHT22;11947;50.810;4.394;2023-07-02T00:34:13;16.80;99.90
23540;DHT22;11947;50.810;4.394;2023-07-02T00:36:38;16.90;99.90
23540;DHT22;11947;50.810;4.394;2023-07-02T00:39:04;16.80;99.90
23540;DHT22;11947;50.810;4.394;2023-07-02T00:41:29;16.90;99.90
23540;DHT22;11947;50.810;4.394;2023-07-02T00:43:55;16.80;99.90
23540;DHT22;11947;50.810;4.394;2023-07-02T00:46:23;16.70;99.90
23540;DHT22;11947;50.810;4.394;2023-07-02T00:48:52;16.80;99.90
23540;DHT22;11947;50.810;4.394;2023-07-02T00:51:22;16.80;99.90
23540;DHT22;11947;50.810;4.394;2023-07-02T00:53:50;16.70;99.90
23540;DHT22;11947;50.810;4.394;2023-07-02T00:56:17;16.70;99.90
23540;DHT22;11947;50.810;4.394;2023-07-02T00:58:47;16.60;99.90
23540;DHT22;11947;50.810;4.394;2023-07-02T01:01:17;16.60;99.90
23540;DHT22;11947;50.810;4.394;2023-07-02T01:04:04;16.50;99.90
23540;DHT22;11947;50.810;4.394;2023-07-02T01:06:35;16.60;99.90
23540;DHT22;11947;50.810;4.394;2023-07-02T01:09:05;16.60;99.90
23540;DHT22;11947;50.810;4.394;2023-07-02T01:14:09;16.50;99.90
23540;DHT22;11947;50.810;4.394;2023-07-02T01:16:37;16.60;99.90
23540;DHT22;11947;50.810;4.394;2023-07-02T01:19:07;16.60;99.90
23540;DHT22;11947;50.810;4.394;2023-07-02T01:21:36;16.50;99.90
23540;DHT22;11947;50.810;4.394;2023-07-02T01:24:02;16.50;99.90
23540;DHT22;11947;50.810;4.394;2023-07-02T01:26:30;16.60;99.90
23540;DHT22;11947;50.810;4.394;2023-07-02T01:28:56;16.60;99.90
23540;DHT22;11947;50.810;4.394;2023-07-02T01:31:22;16.60;99.90
23540;DHT22;11947;50.810;4.394;2023-07-02T01:33:51;16.60;99.90
23540;DHT22;11947;50.810;4.394;2023-07-02T01:36:16;16.70;99.90
23540;DHT22;11947;50.810;4.394;2023-07-02T01:38:42;16.70;99.90
23540;DHT22;11947;50.810;4.394;2023-07-02T01:41:08;16.70;99.90
23540;DHT22;11947;50.810;4.394;2023-07-02T01:43:33;16.80;99.90
23540;DHT22;11947;50.810;4.394;2023-07-02T01:45:59;16.80;99.90
23540;DHT22;11947;50.810;4.394;2023-07-02T01:48:27;16.70;99.90
23540;DHT22;11947;50.810;4.394;2023-07-02T01:50:52;16.70;99.90
23540;DHT22;11947;50.810;4.394;2023-07-02T01:53:18;16.70;99.90
23540;DHT22;11947;50.810;4.394;2023-07-02T01:55:43;16.70;99.90
23540;DHT22;11947;50.810;4.394;2023-07-02T01:58:09;16.70;99.90
23540;DHT22;11947;50.810;4.394;2023-07-02T02:00:35;16.80;99.90
23540;DHT22;11947;50.810;4.394;2023-07-02T02:03:00;16.70;99.90
23540;DHT22;11947;50.810;4.394;2023-07-02T02:05:26;16.80;99.90
23540;DHT22;11947;50.810;4.394;2023-07-02T02:07:51;16.80;99.90
23540;DHT22;11947;50.810;4.394;2023-07-02T02:10:17;16.80;99.90
23540;DHT22;11947;50.810;4.394;2023-07-02T02:12:42;16.80;99.90
23540;DHT22;11947;50.810;4.394;2023-07-02T02:15:08;16.90;99.90
23540;DHT22;11947;50.810;4.394;2023-07-02T02:17:34;16.80;99.90
23540;DHT22;11947;50.810;4.394;2023-07-02T02:20:00;16.90;99.90
23540;DHT22;11947;50.810;4.394;2023-07-02T02:22:26;16.80;99.90
23540;DHT22;11947;50.810;4.394;2023-07-02T02:24:51;16.70;99.90
23540;DHT22;11947;50.810;4.394;2023-07-02T02:27:17;16.80;99.90
23540;DHT22;11947;50.810;4.394;2023-07-02T02:29:43;16.70;99.90
23540;DHT22;11947;50.810;4.394;2023-07-02T02:32:08;16.70;99.90
23540;DHT22;11947;50.810;4.394;2023-07-02T02:34:34;16.70;99.90
23540;DHT22;11947;50.810;4.394;2023-07-02T02:37:00;16.60;99.90
23540;DHT22;11947;50.810;4.394;2023-07-02T02:39:25;16.60;99.90
23540;DHT22;11947;50.810;4.394;2023-07-02T02:41:51;16.60;99.90
23540;DHT22;11947;50.810;4.394;2023-07-02T02:44:17;16.60;99.90
23540;DHT22;11947;50.810;4.394;2023-07-02T02:46:42;16.60;99.90
23540;DHT22;11947;50.810;4.394;2023-07-02T02:49:08;16.60;99.90
23540;DHT22;11947;50.810;4.394;2023-07-02T02:51:33;16.50;99.90
23540;DHT22;11947;50.810;4.394;2023-07-02T02:53:59;16.50;99.90
23540;DHT22;11947;50.810;4.394;2023-07-02T02:56:25;16.40;99.90
23540;DHT22;11947;50.810;4.394;2023-07-02T02:58:50;16.50;99.90
23540;DHT22;11947;50.810;4.394;2023-07-02T03:01:16;16.40;99.90
23540;DHT22;11947;50.810;4.394;2023-07-02T03:03:42;16.40;99.90
23540;DHT22;11947;50.810;4.394;2023-07-02T03:06:11;16.40;99.90
23540;DHT22;11947;50.810;4.394;2023-07-02T03:08:37;16.40;99.90
23540;DHT22;11947;50.810;4.394;2023-07-02T03:11:03;16.40;99.90
23540;DHT22;11947;50.810;4.394;2023-07-02T03:13:28;16.30;99.90
23540;DHT22;11947;50.810;4.394;2023-07-02T03:15:54;16.30;99.90
23540;DHT22;11947;50.810;4.394;2023-07-02T03:18:19;16.30;99.90
23540;DHT22;11947;50.810;4.394;2023-07-02T03:20:45;16.30;99.90
23540;DHT22;11947;50.810;4.394;2023-07-02T03:23:10;16.20;99.90
23540;DHT22;11947;50.810;4.394;2023-07-02T03:25:36;16.20;99.90
23540;DHT22;11947;50.810;4.394;2023-07-02T03:28:02;16.30;99.90
23540;DHT22;11947;50.810;4.394;2023-07-02T03:30:27;16.20;99.90
23540;DHT22;11947;50.810;4.394;2023-07-02T03:32:53;16.20;99.90
23540;DHT22;11947;50.810;4.394;2023-07-02T03:35:18;16.20;99.90
23540;DHT22;11947;50.810;4.394;2023-07-02T03:37:44;16.10;99.90
23540;DHT22;11947;50.810;4.394;2023-07-02T03:40:11;16.10;99.90
23540;DHT22;11947;50.810;4.394;2023-07-02T03:42:37;16.10;99.90
23540;DHT22;11947;50.810;4.394;2023-07-02T03:45:03;16.10;99.90
23540;DHT22;11947;50.810;4.394;2023-07-02T03:47:30;16.00;99.90
23540;DHT22;11947;50.810;4.394;2023-07-02T03:49:55;16.00;99.90
23540;DHT22;11947;50.810;4.394;2023-07-02T03:52:21;15.90;99.90
23540;DHT22;11947;50.810;4.394;2023-07-02T03:54:46;15.90;99.90
23540;DHT22;11947;50.810;4.394;2023-07-02T03:57:12;15.90;99.90
23540;DHT22;11947;50.810;4.394;2023-07-02T03:59:38;16.00;99.90
23540;DHT22;11947;50.810;4.394;2023-07-02T04:02:04;16.00;99.90
23540;DHT22;11947;50.810;4.394;2023-07-02T04:04:29;16.00;99.90
23540;DHT22;11947;50.810;4.394;2023-07-02T04:06:55;15.90;99.90
23540;DHT22;11947;50.810;4.394;2023-07-02T04:09:20;15.90;99.90
23540;DHT22;11947;50.810;4.394;2023-07-02T04:11:46;15.80;99.90
23540;DHT22;11947;50.810;4.394;2023-07-02T04:14:12;15.80;99.90
23540;DHT22;11947;50.810;4.394;2023-07-02T04:16:37;15.80;99.90
23540;DHT22;11947;50.810;4.394;2023-07-02T04:19:03;16.00;99.90
23540;DHT22;11947;50.810;4.394;2023-07-02T04:21:28;16.00;99.90
23540;DHT22;11947;50.810;4.394;2023-07-02T04:23:54;16.00;99.90
23540;DHT22;11947;50.810;4.394;2023-07-02T04:26:19;16.10;99.90
23540;DHT22;11947;50.810;4.394;2023-07-02T04:28:45;16.00;99.90
23540;DHT22;11947;50.810;4.394;2023-07-02T04:31:11;16.00;99.90
23540;DHT22;11947;50.810;4.394;2023-07-02T04:33:37;16.00;99.90
23540;DHT22;11947;50.810;4.394;2023-07-02T04:36:03;15.90;99.90
23540;DHT22;11947;50.810;4.394;2023-07-02T04:38:29;15.90;99.90
23540;DHT22;11947;50.810;4.394;2023-07-02T04:40:54;16.00;99.90
23540;DHT22;11947;50.810;4.394;2023-07-02T04:43:23;16.00;99.90
23540;DHT22;11947;50.810;4.394;2023-07-02T04:45:49;16.10;99.90
23540;DHT22;11947;50.810;4.394;2023-07-02T04:48:14;16.00;99.90
23540;DHT22;11947;50.810;4.394;2023-07-02T04:50:41;16.10;99.90
23540;DHT22;11947;50.810;4.394;2023-07-02T04:53:07;16.20;99.90
23540;DHT22;11947;50.810;4.394;2023-07-02T04:55:33;16.30;99.90
23540;DHT22;11947;50.810;4.394;2023-07-02T04:57:58;16.40;99.90
23540;DHT22;11947;50.810;4.394;2023-07-02T05:00:24;16.30;99.90
23540;DHT22;11947;50.810;4.394;2023-07-02T05:02:49;16.30;99.90
23540;DHT22;11947;50.810;4.394;2023-07-02T05:05:16;16.30;99.90
23540;DHT22;11947;50.810;4.394;2023-07-02T05:07:41;16.40;99.90
23540;DHT22;11947;50.810;4.394;2023-07-02T05:10:07;16.40;99.90
23540;DHT22;11947;50.810;4.394;2023-07-02T05:12:33;16.50;99.90
23540;DHT22;11947;50.810;4.394;2023-07-02T05:14:59;16.50;99.90
23540;DHT22;11947;50.810;4.394;2023-07-02T05:17:24;16.50;99.90
23540;DHT22;11947;50.810;4.394;2023-07-02T05:19:50;16.50;99.90
23540;DHT22;11947;50.810;4.394;2023-07-02T05:22:15;16.40;99.90
23540;DHT22;11947;50.810;4.394;2023-07-02T05:24:41;16.40;99.90
23540;DHT22;11947;50.810;4.394;2023-07-02T05:27:07;16.50;99.90
23540;DHT22;11947;50.810;4.394;2023-07-02T05:29:32;16.60;99.90
23540;DHT22;11947;50.810;4.394;2023-07-02T05:31:58;16.60;99.90
23540;DHT22;11947;50.810;4.394;2023-07-02T05:34:23;16.40;99.90
23540;DHT22;11947;50.810;4.394;2023-07-02T05:36:49;16.60;99.90
23540;DHT22;11947;50.810;4.394;2023-07-02T05:39:14;16.70;99.90
23540;DHT22;11947;50.810;4.394;2023-07-02T05:41:40;16.80;99.90
23540;DHT22;11947;50.810;4.394;2023-07-02T05:44:06;16.90;99.90
23540;DHT22;11947;50.810;4.394;2023-07-02T05:46:31;17.10;99.90
23540;DHT22;11947;50.810;4.394;2023-07-02T05:48:57;17.20;99.90
23540;DHT22;11947;50.810;4.394;2023-07-02T05:51:23;17.30;99.90
23540;DHT22;11947;50.810;4.394;2023-07-02T05:53:50;17.40;99.90
23540;DHT22;11947;50.810;4.394;2023-07-02T05:56:16;17.40;99.90
23540;DHT22;11947;50.810;4.394;2023-07-02T05:58:41;17.40;99.90
23540;DHT22;11947;50.810;4.394;2023-07-02T06:01:07;17.60;99.90
23540;DHT22;11947;50.810;4.394;2023-07-02T06:03:33;17.60;99.90
23540;DHT22;11947;50.810;4.394;2023-07-02T06:05:58;17.70;99.90
23540;DHT22;11947;50.810;4.394;2023-07-02T06:08:24;17.80;99.90
23540;DHT22;11947;50.810;4.394;2023-07-02T06:10:50;17.80;99.90
23540;DHT22;11947;50.810;4.394;2023-07-02T06:13:16;17.90;99.90
23540;DHT22;11947;50.810;4.394;2023-07-02T06:15:42;18.00;99.90
23540;DHT22;11947;50.810;4.394;2023-07-02T06:18:08;18.30;99.90
23540;DHT22;11947;50.810;4.394;2023-07-02T06:20:33;18.50;99.90
23540;DHT22;11947;50.810;4.394;2023-07-02T06:22:59;18.60;99.90
23540;DHT22;11947;50.810;4.394;2023-07-02T06:25:25;18.70;99.90
23540;DHT22;11947;50.810;4.394;2023-07-02T06:27:51;18.70;99.90
23540;DHT22;11947;50.810;4.394;2023-07-02T06:30:17;18.70;99.90
23540;DHT22;11947;50.810;4.394;2023-07-02T06:32:43;18.80;99.90
23540;DHT22;11947;50.810;4.394;2023-07-02T06:35:08;18.90;99.90
23540;DHT22;11947;50.810;4.394;2023-07-02T06:37:34;19.10;99.90
23540;DHT22;11947;50.810;4.394;2023-07-02T06:39:59;19.10;99.90
23540;DHT22;11947;50.810;4.394;2023-07-02T06:42:25;19.00;99.90
23540;DHT22;11947;50.810;4.394;2023-07-02T06:44:51;19.10;99.90
23540;DHT22;11947;50.810;4.394;2023-07-02T06:47:17;19.10;99.90
23540;DHT22;11947;50.810;4.394;2023-07-02T06:49:43;19.30;99.90
23540;DHT22;11947;50.810;4.394;2023-07-02T06:52:09;19.30;99.90
23540;DHT22;11947;50.810;4.394;2023-07-02T06:54:35;19.20;99.90
23540;DHT22;11947;50.810;4.394;2023-07-02T06:57:00;19.30;99.90
23540;DHT22;11947;50.810;4.394;2023-07-02T06:59:26;19.50;99.90
23540;DHT22;11947;50.810;4.394;2023-07-02T07:01:52;19.50;99.90
23540;DHT22;11947;50.810;4.394;2023-07-02T07:04:17;19.60;99.90
23540;DHT22;11947;50.810;4.394;2023-07-02T07:06:43;19.80;99.90
23540;DHT22;11947;50.810;4.394;2023-07-02T07:09:09;19.90;99.90
23540;DHT22;11947;50.810;4.394;2023-07-02T07:11:35;19.90;99.90
23540;DHT22;11947;50.810;4.394;2023-07-02T07:14:01;20.00;99.90
23540;DHT22;11947;50.810;4.394;2023-07-02T07:16:26;20.10;99.90
23540;DHT22;11947;50.810;4.394;2023-07-02T07:18:52;20.20;99.90
23540;DHT22;11947;50.810;4.394;2023-07-02T07:21:18;20.30;99.90
23540;DHT22;11947;50.810;4.394;2023-07-02T07:23:44;20.60;99.90
23540;DHT22;11947;50.810;4.394;2023-07-02T07:26:10;20.80;99.90
23540;DHT22;11947;50.810;4.394;2023-07-02T07:28:36;21.00;99.90
23540;DHT22;11947;50.810;4.394;2023-07-02T07:31:01;21.10;99.90
23540;DHT22;11947;50.810;4.394;2023-07-02T07:33:27;21.00;99.90
23540;DHT22;11947;50.810;4.394;2023-07-02T07:35:53;21.10;99.90
23540;DHT22;11947;50.810;4.394;2023-07-02T07:38:19;21.20;99.90
23540;DHT22;11947;50.810;4.394;2023-07-02T07:40:44;21.50;99.90
23540;DHT22;11947;50.810;4.394;2023-07-02T07:43:10;21.10;99.90
23540;DHT22;11947;50.810;4.394;2023-07-02T07:45:36;21.00;99.90
23540;DHT22;11947;50.810;4.394;2023-07-02T07:48:03;20.90;99.90
23540;DHT22;11947;50.810;4.394;2023-07-02T07:50:29;21.00;99.90
23540;DHT22;11947;50.810;4.394;2023-07-02T07:52:55;21.00;99.90
23540;DHT22;11947;50.810;4.394;2023-07-02T07:55:20;21.10;99.90
23540;DHT22;11947;50.810;4.394;2023-07-02T07:57:46;21.40;99.90
23540;DHT22;11947;50.810;4.394;2023-07-02T08:00:13;21.60;99.90
23540;DHT22;11947;50.810;4.394;2023-07-02T08:02:39;21.60;99.90
23540;DHT22;11947;50.810;4.394;2023-07-02T08:05:05;21.80;99.90
23540;DHT22;11947;50.810;4.394;2023-07-02T08:07:34;21.80;99.90
23540;DHT22;11947;50.810;4.394;2023-07-02T08:10:00;21.80;99.90
23540;DHT22;11947;50.810;4.394;2023-07-02T08:12:25;21.90;99.90
23540;DHT22;11947;50.810;4.394;2023-07-02T08:14:55;21.80;99.90
23540;DHT22;11947;50.810;4.394;2023-07-02T08:17:21;21.90;99.90
23540;DHT22;11947;50.810;4.394;2023-07-02T08:19:47;22.00;99.90
23540;DHT22;11947;50.810;4.394;2023-07-02T08:22:13;22.40;99.90
23540;DHT22;11947;50.810;4.394;2023-07-02T08:24:38;22.50;99.90
23540;DHT22;11947;50.810;4.394;2023-07-02T08:27:04;22.70;99.90
23540;DHT22;11947;50.810;4.394;2023-07-02T08:29:30;22.90;99.90
23540;DHT22;11947;50.810;4.394;2023-07-02T08:31:57;22.70;99.90
23540;DHT22;11947;50.810;4.394;2023-07-02T08:34:22;22.70;99.90
23540;DHT22;11947;50.810;4.394;2023-07-02T08:36:48;22.80;99.90
23540;DHT22;11947;50.810;4.394;2023-07-02T08:39:14;22.60;99.90
23540;DHT22;11947;50.810;4.394;2023-07-02T08:41:47;22.50;99.90
23540;DHT22;11947;50.810;4.394;2023-07-02T08:44:14;22.20;99.90
23540;DHT22;11947;50.810;4.394;2023-07-02T08:46:41;22.00;99.90
23540;DHT22;11947;50.810;4.394;2023-07-02T08:49:10;22.00;99.90
23540;DHT22;11947;50.810;4.394;2023-07-02T08:51:36;21.70;99.90
23540;DHT22;11947;50.810;4.394;2023-07-02T08:54:03;21.50;99.90
23540;DHT22;11947;50.810;4.394;2023-07-02T08:56:29;21.30;99.90
23540;DHT22;11947;50.810;4.394;2023-07-02T08:58:55;21.40;99.90
23540;DHT22;11947;50.810;4.394;2023-07-02T09:01:21;21.50;99.90
23540;DHT22;11947;50.810;4.394;2023-07-02T09:03:48;21.90;99.90
23540;DHT22;11947;50.810;4.394;2023-07-02T09:06:17;22.10;99.90
23540;DHT22;11947;50.810;4.394;2023-07-02T09:08:44;22.10;99.90
23540;DHT22;11947;50.810;4.394;2023-07-02T09:11:15;22.00;99.90
23540;DHT22;11947;50.810;4.394;2023-07-02T09:13:52;21.80;99.90
23540;DHT22;11947;50.810;4.394;2023-07-02T09:16:32;21.50;99.90
23540;DHT22;11947;50.810;4.394;2023-07-02T09:19:05;21.30;99.90
23540;DHT22;11947;50.810;4.394;2023-07-02T09:21:43;21.00;99.90
23540;DHT22;11947;50.810;4.394;2023-07-02T09:24:18;20.80;99.90
23540;DHT22;11947;50.810;4.394;2023-07-02T09:26:48;20.90;99.90
23540;DHT22;11947;50.810;4.394;2023-07-02T09:29:23;21.20;99.90
23540;DHT22;11947;50.810;4.394;2023-07-02T09:31:50;21.30;99.90
23540;DHT22;11947;50.810;4.394;2023-07-02T09:34:16;21.70;99.90
23540;DHT22;11947;50.810;4.394;2023-07-02T09:36:43;22.00;99.90
23540;DHT22;11947;50.810;4.394;2023-07-02T09:39:14;22.50;99.90
23540;DHT22;11947;50.810;4.394;2023-07-02T09:41:42;22.90;99.90
23540;DHT22;11947;50.810;4.394;2023-07-02T09:44:10;23.00;99.90
23540;DHT22;11947;50.810;4.394;2023-07-02T09:47:06;22.80;99.90
23540;DHT22;11947;50.810;4.394;2023-07-02T09:49:48;22.70;99.90
23540;DHT22;11947;50.810;4.394;2023-07-02T09:52:14;22.50;99.90
23540;DHT22;11947;50.810;4.394;2023-07-02T09:54:41;22.80;99.90
23540;DHT22;11947;50.810;4.394;2023-07-02T09:57:07;22.80;99.90
23540;DHT22;11947;50.810;4.394;2023-07-02T09:59:33;22.90;99.90
23540;DHT22;11947;50.810;4.394;2023-07-02T10:01:58;22.80;99.90
23540;DHT22;11947;50.810;4.394;2023-07-02T10:04:24;23.20;99.90
23540;DHT22;11947;50.810;4.394;2023-07-02T10:06:55;23.90;99.90
23540;DHT22;11947;50.810;4.394;2023-07-02T10:12:23;24.20;99.90
23540;DHT22;11947;50.810;4.394;2023-07-02T10:14:51;24.30;99.90
23540;DHT22;11947;50.810;4.394;2023-07-02T10:17:25;23.90;99.90
23540;DHT22;11947;50.810;4.394;2023-07-02T10:19:53;23.80;99.90
23540;DHT22;11947;50.810;4.394;2023-07-02T10:22:19;23.70;99.90
23540;DHT22;11947;50.810;4.394;2023-07-02T10:27:18;23.90;99.90
23540;DHT22;11947;50.810;4.394;2023-07-02T10:29:50;24.90;99.90
23540;DHT22;11947;50.810;4.394;2023-07-02T10:32:27;26.30;99.90
23540;DHT22;11947;50.810;4.394;2023-07-02T10:34:54;25.90;99.90
23540;DHT22;11947;50.810;4.394;2023-07-02T10:37:19;25.40;99.90
23540;DHT22;11947;50.810;4.394;2023-07-02T10:39:48;24.80;99.90
23540;DHT22;11947;50.810;4.394;2023-07-02T10:42:14;24.50;99.90
23540;DHT22;11947;50.810;4.394;2023-07-02T10:44:48;24.10;99.90
23540;DHT22;11947;50.810;4.394;2023-07-02T10:47:14;23.50;99.90
23540;DHT22;11947;50.810;4.394;2023-07-02T10:49:40;23.50;99.90
23540;DHT22;11947;50.810;4.394;2023-07-02T10:52:06;23.90;99.90
23540;DHT22;11947;50.810;4.394;2023-07-02T10:54:39;25.10;99.90
23540;DHT22;11947;50.810;4.394;2023-07-02T10:57:07;27.30;99.90
23540;DHT22;11947;50.810;4.394;2023-07-02T10:59:37;27.50;99.90
23540;DHT22;11947;50.810;4.394;2023-07-02T11:02:03;26.40;99.90
23540;DHT22;11947;50.810;4.394;2023-07-02T11:04:33;25.90;99.90
23540;DHT22;11947;50.810;4.394;2023-07-02T11:06:59;26.00;99.90
23540;DHT22;11947;50.810;4.394;2023-07-02T11:09:25;26.20;99.90
23540;DHT22;11947;50.810;4.394;2023-07-02T11:11:59;27.20;99.90
23540;DHT22;11947;50.810;4.394;2023-07-02T11:14:35;28.20;99.90
23540;DHT22;11947;50.810;4.394;2023-07-02T11:17:06;29.80;99.90
23540;DHT22;11947;50.810;4.394;2023-07-02T11:19:35;32.10;99.90
23540;DHT22;11947;50.810;4.394;2023-07-02T11:22:01;33.20;97.00
23540;DHT22;11947;50.810;4.394;2023-07-02T11:24:32;32.80;95.80
23540;DHT22;11947;50.810;4.394;2023-07-02T11:27:00;31.30;94.50
23540;DHT22;11947;50.810;4.394;2023-07-02T11:29:27;30.00;96.10
23540;DHT22;11947;50.810;4.394;2023-07-02T11:31:53;28.60;97.80
23540;DHT22;11947;50.810;4.394;2023-07-02T11:34:21;27.50;99.90
23540;DHT22;11947;50.810;4.394;2023-07-02T11:36:47;26.70;99.80
23540;DHT22;11947;50.810;4.394;2023-07-02T11:39:13;26.00;99.90
23540;DHT22;11947;50.810;4.394;2023-07-02T11:41:41;25.90;99.90
23540;DHT22;11947;50.810;4.394;2023-07-02T11:44:07;26.50;99.70
23540;DHT22;11947;50.810;4.394;2023-07-02T11:46:33;26.90;98.50
23540;DHT22;11947;50.810;4.394;2023-07-02T11:49:04;26.70;99.10
23540;DHT22;11947;50.810;4.394;2023-07-02T11:51:30;27.20;99.90
23540;DHT22;11947;50.810;4.394;2023-07-02T11:53:56;28.10;98.70
23540;DHT22;11947;50.810;4.394;2023-07-02T11:56:23;28.10;99.10
23540;DHT22;11947;50.810;4.394;2023-07-02T11:58:48;27.70;99.90
23540;DHT22;11947;50.810;4.394;2023-07-02T12:01:14;27.90;99.30
23540;DHT22;11947;50.810;4.394;2023-07-02T12:03:40;29.60;98.60
23540;DHT22;11947;50.810;4.394;2023-07-02T12:06:05;31.40;93.40
23540;DHT22;11947;50.810;4.394;2023-07-02T12:08:31;31.70;93.10
23540;DHT22;11947;50.810;4.394;2023-07-02T12:10:56;31.00;93.90
23540;DHT22;11947;50.810;4.394;2023-07-02T12:13:22;30.20;92.60
23540;DHT22;11947;50.810;4.394;2023-07-02T12:15:48;29.90;94.60
23540;DHT22;11947;50.810;4.394;2023-07-02T12:18:15;30.50;91.90
23540;DHT22;11947;50.810;4.394;2023-07-02T12:20:40;30.00;93.60
23540;DHT22;11947;50.810;4.394;2023-07-02T12:23:06;29.40;93.60
23540;DHT22;11947;50.810;4.394;2023-07-02T12:25:32;29.20;95.40
23540;DHT22;11947;50.810;4.394;2023-07-02T12:27:57;29.70;93.80
23540;DHT22;11947;50.810;4.394;2023-07-02T12:30:23;29.60;92.90
23540;DHT22;11947;50.810;4.394;2023-07-02T12:32:49;30.00;94.20
23540;DHT22;11947;50.810;4.394;2023-07-02T12:35:15;30.00;92.40
23540;DHT22;11947;50.810;4.394;2023-07-02T12:37:47;30.10;93.30
23540;DHT22;11947;50.810;4.394;2023-07-02T12:40:13;31.60;92.00
23540;DHT22;11947;50.810;4.394;2023-07-02T12:42:40;33.40;90.10
23540;DHT22;11947;50.810;4.394;2023-07-02T12:45:07;35.50;90.70
23540;DHT22;11947;50.810;4.394;2023-07-02T12:47:33;35.90;82.40
23540;DHT22;11947;50.810;4.394;2023-07-02T12:49:58;33.80;85.80
23540;DHT22;11947;50.810;4.394;2023-07-02T12:52:24;31.90;90.80
23540;DHT22;11947;50.810;4.394;2023-07-02T12:54:49;30.50;91.80
23540;DHT22;11947;50.810;4.394;2023-07-02T12:57:15;31.20;91.10
23540;DHT22;11947;50.810;4.394;2023-07-02T12:59:41;32.30;91.00
23540;DHT22;11947;50.810;4.394;2023-07-02T13:02:06;33.30;86.20
23540;DHT22;11947;50.810;4.394;2023-07-02T13:04:32;34.00;81.20
23540;DHT22;11947;50.810;4.394;2023-07-02T13:06:57;34.30;81.00
23540;DHT22;11947;50.810;4.394;2023-07-02T13:09:23;35.10;83.00
23540;DHT22;11947;50.810;4.394;2023-07-02T13:11:49;34.90;78.60
23540;DHT22;11947;50.810;4.394;2023-07-02T13:14:14;33.30;83.40
23540;DHT22;11947;50.810;4.394;2023-07-02T13:16:40;31.80;82.40
23540;DHT22;11947;50.810;4.394;2023-07-02T13:19:05;31.70;84.80
23540;DHT22;11947;50.810;4.394;2023-07-02T13:21:31;31.50;83.80
23540;DHT22;11947;50.810;4.394;2023-07-02T13:23:57;30.90;87.10
23540;DHT22;11947;50.810;4.394;2023-07-02T13:26:22;31.90;81.80
23540;DHT22;11947;50.810;4.394;2023-07-02T13:28:48;33.40;81.70
23540;DHT22;11947;50.810;4.394;2023-07-02T13:31:15;34.90;84.10
23540;DHT22;11947;50.810;4.394;2023-07-02T13:33:42;36.20;76.90
23540;DHT22;11947;50.810;4.394;2023-07-02T13:36:07;37.20;76.80
23540;DHT22;11947;50.810;4.394;2023-07-02T13:38:33;36.50;73.90
23540;DHT22;11947;50.810;4.394;2023-07-02T13:40:59;34.30;78.70
23540;DHT22;11947;50.810;4.394;2023-07-02T13:43:25;33.90;77.90
23540;DHT22;11947;50.810;4.394;2023-07-02T13:45:51;34.10;80.10
23540;DHT22;11947;50.810;4.394;2023-07-02T13:48:17;35.00;78.60
23540;DHT22;11947;50.810;4.394;2023-07-02T13:50:42;35.00;77.50
23540;DHT22;11947;50.810;4.394;2023-07-02T13:53:08;35.10;75.30
23540;DHT22;11947;50.810;4.394;2023-07-02T13:55:34;35.80;77.10
23540;DHT22;11947;50.810;4.394;2023-07-02T13:58:00;36.10;77.30
23540;DHT22;11947;50.810;4.394;2023-07-02T14:00:27;36.20;73.50
23540;DHT22;11947;50.810;4.394;2023-07-02T14:02:52;36.50;73.00
23540;DHT22;11947;50.810;4.394;2023-07-02T14:05:18;36.70;72.70
23540;DHT22;11947;50.810;4.394;2023-07-02T14:07:44;35.10;74.20
23540;DHT22;11947;50.810;4.394;2023-07-02T14:10:10;34.40;76.60
23540;DHT22;11947;50.810;4.394;2023-07-02T14:12:38;33.80;76.80
23540;DHT22;11947;50.810;4.394;2023-07-02T14:15:04;33.40;77.50
23540;DHT22;11947;50.810;4.394;2023-07-02T14:17:29;32.50;79.20
23540;DHT22;11947;50.810;4.394;2023-07-02T14:19:55;31.40;80.00
23540;DHT22;11947;50.810;4.394;2023-07-02T14:22:21;30.30;86.00
23540;DHT22;11947;50.810;4.394;2023-07-02T14:24:58;29.90;85.60
23540;DHT22;11947;50.810;4.394;2023-07-02T14:27:24;29.00;87.70
23540;DHT22;11947;50.810;4.394;2023-07-02T14:29:50;28.60;89.20
23540;DHT22;11947;50.810;4.394;2023-07-02T14:32:16;28.00;89.80
23540;DHT22;11947;50.810;4.394;2023-07-02T14:34:42;27.70;91.60
23540;DHT22;11947;50.810;4.394;2023-07-02T14:37:08;27.60;92.00
23540;DHT22;11947;50.810;4.394;2023-07-02T14:39:54;27.40;92.80
23540;DHT22;11947;50.810;4.394;2023-07-02T14:42:19;27.00;90.70
23540;DHT22;11947;50.810;4.394;2023-07-02T14:44:45;26.30;92.60
23540;DHT22;11947;50.810;4.394;2023-07-02T14:47:10;26.00;92.20
23540;DHT22;11947;50.810;4.394;2023-07-02T14:49:36;26.20;93.50
23540;DHT22;11947;50.810;4.394;2023-07-02T14:52:02;26.30;91.60
23540;DHT22;11947;50.810;4.394;2023-07-02T14:54:28;26.10;92.40
23540;DHT22;11947;50.810;4.394;2023-07-02T14:56:54;25.90;94.00
23540;DHT22;11947;50.810;4.394;2023-07-02T14:59:19;25.70;92.60
23540;DHT22;11947;50.810;4.394;2023-07-02T15:01:45;25.60;93.80
23540;DHT22;11947;50.810;4.394;2023-07-02T15:04:10;25.70;94.90
23540;DHT22;11947;50.810;4.394;2023-07-02T15:06:36;25.80;94.90
23540;DHT22;11947;50.810;4.394;2023-07-02T15:09:02;25.90;93.70
23540;DHT22;11947;50.810;4.394;2023-07-02T15:11:29;25.70;93.20
23540;DHT22;11947;50.810;4.394;2023-07-02T15:13:54;25.70;93.20
23540;DHT22;11947;50.810;4.394;2023-07-02T15:16:20;25.60;92.60
23540;DHT22;11947;50.810;4.394;2023-07-02T15:18:46;25.80;93.80
23540;DHT22;11947;50.810;4.394;2023-07-02T15:21:12;25.90;94.00
23540;DHT22;11947;50.810;4.394;2023-07-02T15:23:38;25.80;95.30
23540;DHT22;11947;50.810;4.394;2023-07-02T15:26:05;25.70;95.10
23540;DHT22;11947;50.810;4.394;2023-07-02T15:28:32;25.50;95.50
23540;DHT22;11947;50.810;4.394;2023-07-02T15:31:03;25.50;93.10
23540;DHT22;11947;50.810;4.394;2023-07-02T15:33:29;25.50;93.30